createdAt,value
2018-10-17T00:01:15.709Z,29.57
2018-10-17T00:03:19.681Z,29.50
2018-10-17T00:05:23.735Z,28.47
2018-10-17T00:07:27.765Z,30.73
2018-10-17T00:09:31.840Z,29.40
2018-10-17T00:11:36.494Z,28.23
2018-10-17T00:13:40.552Z,28.93
2018-10-17T00:15:44.635Z,27.23
2018-10-17T00:17:48.742Z,27.80
2018-10-17T00:19:52.843Z,26.10
2018-10-17T00:21:56.973Z,28.80
2018-10-17T00:24:01.004Z,29.07
2018-10-17T00:26:05.249Z,28.10
2018-10-17T00:28:09.311Z,26.47
2018-10-17T00:30:13.832Z,27.50
2018-10-17T00:32:17.903Z,26.60
2018-10-17T00:34:21.982Z,27.33
2018-10-17T00:36:26.126Z,26.57
2018-10-17T00:38:30.175Z,26.97
2018-10-17T00:40:34.243Z,27.83
2018-10-17T00:42:38.259Z,29.30
2018-10-17T00:44:42.333Z,28.70
2018-10-17T00:46:46.462Z,26.97
2018-10-17T00:48:50.593Z,29.33
2018-10-17T00:50:54.744Z,31.87
2018-10-17T00:52:59.010Z,31.03
2018-10-17T00:55:03.213Z,30.73
2018-10-17T00:57:07.340Z,31.00
2018-10-17T00:59:14.728Z,30.37
2018-10-17T01:01:18.948Z,31.80
2018-10-17T01:03:22.994Z,27.70
2018-10-17T01:05:27.001Z,28.77
2018-10-17T01:07:31.047Z,27.43
2018-10-17T01:09:35.221Z,27.17
2018-10-17T01:11:39.825Z,26.93
2018-10-17T01:13:43.845Z,26.37
2018-10-17T01:15:47.917Z,26.20
2018-10-17T01:17:51.976Z,26.93
2018-10-17T01:19:56.152Z,25.43
2018-10-17T01:22:00.274Z,25.73
2018-10-17T01:24:04.980Z,27.70
2018-10-17T01:26:09.078Z,27.97
2018-10-17T01:28:13.134Z,27.30
2018-10-17T01:30:17.165Z,28.77
2018-10-17T01:32:21.217Z,27.07
2018-10-17T01:34:25.325Z,27.40
2018-10-17T01:36:29.444Z,26.83
2018-10-17T01:38:33.545Z,28.20
2018-10-17T01:40:37.631Z,27.63
2018-10-17T01:42:41.777Z,26.90
2018-10-17T01:44:45.904Z,28.07
2018-10-17T01:46:49.968Z,27.00
2018-10-17T01:48:54.483Z,27.07
2018-10-17T01:50:59.128Z,26.50
2018-10-17T01:53:03.453Z,28.67
2018-10-17T01:55:08.122Z,27.33
2018-10-17T01:57:12.201Z,27.67
2018-10-17T01:59:16.265Z,26.63
2018-10-17T02:01:20.315Z,28.13
2018-10-17T02:03:24.467Z,30.10
2018-10-17T02:05:28.470Z,29.53
2018-10-17T02:07:32.557Z,32.17
2018-10-17T02:09:36.666Z,31.77
2018-10-17T02:11:40.840Z,30.63
2018-10-17T02:13:44.982Z,32.80
2018-10-17T02:15:50.421Z,31.53
2018-10-17T02:17:54.508Z,32.23
2018-10-17T02:19:58.569Z,30.13
2018-10-17T02:22:02.631Z,31.33
2018-10-17T02:24:07.596Z,29.57
2018-10-17T02:26:11.703Z,29.63
2018-10-17T02:28:15.854Z,29.20
2018-10-17T02:30:19.931Z,29.73
2018-10-17T02:32:24.489Z,30.23
2018-10-17T02:34:28.569Z,30.37
2018-10-17T02:36:32.612Z,31.23
2018-10-17T02:38:36.674Z,29.77
2018-10-17T02:40:40.694Z,29.73
2018-10-17T02:42:44.765Z,29.87
2018-10-17T02:44:48.830Z,31.63
2018-10-17T02:46:52.912Z,30.37
2018-10-17T02:48:57.010Z,30.00
2018-10-17T02:51:01.032Z,28.93
2018-10-17T02:53:05.322Z,27.63
2018-10-17T02:55:09.879Z,27.80
2018-10-17T02:57:13.863Z,27.60
2018-10-17T02:59:18.068Z,28.33
2018-10-17T03:01:22.005Z,29.37
2018-10-17T03:03:26.126Z,27.90
2018-10-17T03:05:30.245Z,28.43
2018-10-17T03:07:34.406Z,26.93
2018-10-17T03:09:38.469Z,28.27
2018-10-17T03:11:42.502Z,27.10
2018-10-17T03:13:46.583Z,28.40
2018-10-17T03:15:50.637Z,28.50
2018-10-17T03:17:54.699Z,28.73
2018-10-17T03:19:58.810Z,28.90
2018-10-17T03:22:02.901Z,29.57
2018-10-17T03:24:06.933Z,30.70
2018-10-17T03:26:11.074Z,31.00
2018-10-17T03:28:16.156Z,28.60
2018-10-17T03:30:20.129Z,29.27
2018-10-17T03:32:24.148Z,30.27
2018-10-17T03:34:28.243Z,27.50
2018-10-17T03:36:32.331Z,28.43
2018-10-17T03:38:36.414Z,29.10
2018-10-17T03:40:40.446Z,27.50
2018-10-17T03:42:44.507Z,29.37
2018-10-17T03:44:48.609Z,28.63
2018-10-17T03:46:52.762Z,31.33
2018-10-17T03:48:56.800Z,29.10
2018-10-17T03:51:00.823Z,30.07
2018-10-17T03:53:04.954Z,29.63
2018-10-17T03:55:09.160Z,29.17
2018-10-17T03:57:13.402Z,30.23
2018-10-17T03:59:17.460Z,31.07
2018-10-17T04:01:21.545Z,31.17
2018-10-17T04:03:25.623Z,29.63
2018-10-17T04:05:29.668Z,28.83
2018-10-17T04:07:33.822Z,30.47
2018-10-17T04:09:38.199Z,29.13
2018-10-17T04:11:42.221Z,29.80
2018-10-17T04:13:46.362Z,30.57
2018-10-17T04:15:50.518Z,29.57
2018-10-17T04:17:54.530Z,30.90
2018-10-17T04:19:58.553Z,29.87
2018-10-17T04:22:02.652Z,30.13
2018-10-17T04:24:06.752Z,29.47
2018-10-17T04:26:10.925Z,30.43
2018-10-17T04:28:15.085Z,30.00
2018-10-17T04:30:19.117Z,30.67
2018-10-17T04:32:23.187Z,31.17
2018-10-17T04:34:27.195Z,30.07
2018-10-17T04:36:31.249Z,29.23
2018-10-17T04:38:35.289Z,29.77
2018-10-17T04:40:39.350Z,29.00
2018-10-17T04:42:43.732Z,27.77
2018-10-17T04:44:47.765Z,27.97
2018-10-17T04:46:51.837Z,28.70
2018-10-17T04:48:55.908Z,27.63
2018-10-17T04:51:00.012Z,28.67
2018-10-17T04:53:04.056Z,28.77
2018-10-17T04:55:09.023Z,28.83
2018-10-17T04:57:13.077Z,27.23
2018-10-17T04:59:17.324Z,28.47
2018-10-17T05:01:21.389Z,28.13
2018-10-17T05:03:25.392Z,28.10
2018-10-17T05:05:29.481Z,28.00
2018-10-17T05:07:33.518Z,27.13
2018-10-17T05:09:37.582Z,28.30
2018-10-17T05:11:41.678Z,31.13
2018-10-17T05:13:45.696Z,31.97
2018-10-17T05:15:49.741Z,32.77
2018-10-17T05:17:53.830Z,30.23
2018-10-17T05:19:57.900Z,28.83
2018-10-17T05:22:01.945Z,29.77
2018-10-17T05:24:06.021Z,28.87
2018-10-17T05:26:10.057Z,30.80
2018-10-17T05:28:14.110Z,30.37
2018-10-17T05:30:18.242Z,29.87
2018-10-17T05:32:22.259Z,29.87
2018-10-17T05:34:26.322Z,27.97
2018-10-17T05:36:30.407Z,27.10
2018-10-17T05:38:34.482Z,27.43
2018-10-17T05:40:38.539Z,26.20
2018-10-17T05:42:42.599Z,25.87
2018-10-17T05:44:46.629Z,27.93
2018-10-17T05:46:50.751Z,27.10
2018-10-17T05:48:54.825Z,26.37
2018-10-17T05:50:58.877Z,28.03
2018-10-17T05:53:02.990Z,26.50
2018-10-17T05:55:07.317Z,29.00
2018-10-17T05:57:11.312Z,29.43
2018-10-17T05:59:15.548Z,27.10
2018-10-17T06:01:19.618Z,29.47
2018-10-17T06:03:23.809Z,27.73
2018-10-17T06:05:27.907Z,28.70
2018-10-17T06:07:31.977Z,27.13
2018-10-17T06:09:36.062Z,29.43
2018-10-17T06:11:40.112Z,28.33
2018-10-17T06:13:44.169Z,28.57
2018-10-17T06:15:48.189Z,28.77
2018-10-17T06:17:52.257Z,29.53
2018-10-17T06:19:56.366Z,30.67
2018-10-17T06:22:00.436Z,31.03
2018-10-17T06:24:04.561Z,32.50
2018-10-17T06:26:08.607Z,29.50
2018-10-17T06:28:12.826Z,30.20
2018-10-17T06:30:16.986Z,30.03
2018-10-17T06:32:21.049Z,29.10
2018-10-17T15:36:39.284Z,15.13
2018-10-17T15:38:25.070Z,15.97
2018-10-17T15:42:36.513Z,15.97
2018-10-17T15:44:21.486Z,15.83
2018-10-17T15:46:06.168Z,16.63
2018-10-17T15:47:50.343Z,16.70
2018-10-17T15:49:34.449Z,18.03
2018-10-17T15:51:18.650Z,17.90
2018-10-17T15:53:02.811Z,18.20
2018-10-17T15:54:47.075Z,18.23
2018-10-17T15:56:31.252Z,18.50
2018-10-17T15:58:15.446Z,19.50
2018-10-17T15:59:59.569Z,18.07
2018-10-17T16:01:43.647Z,19.63
2018-10-17T16:03:27.745Z,19.93
2018-10-17T16:05:12.423Z,18.97
2018-10-17T16:06:57.382Z,19.90
2018-10-17T16:08:41.523Z,19.70
2018-10-17T16:10:25.613Z,20.00
2018-10-17T16:12:09.794Z,20.43
2018-10-17T16:13:53.796Z,19.57
2018-10-17T16:15:40.949Z,19.80
2018-10-17T16:17:25.177Z,21.50
2018-10-17T16:19:09.294Z,21.23
2018-10-17T16:20:53.412Z,22.13
2018-10-17T16:22:37.592Z,24.23
2018-10-17T16:24:21.614Z,24.87
2018-10-17T16:26:05.793Z,25.93
2018-10-17T16:27:49.871Z,24.20
2018-10-17T16:29:33.919Z,27.13
2018-10-17T16:31:18.151Z,26.30
2018-10-17T16:33:02.131Z,27.73
2018-10-17T16:34:46.400Z,27.87
2018-10-17T16:36:30.496Z,28.93
2018-10-17T16:38:14.762Z,28.77
2018-10-17T16:39:58.745Z,28.47
2018-10-17T16:41:42.929Z,30.33
2018-10-17T16:43:27.584Z,29.20
2018-10-17T16:45:12.248Z,27.83
2018-10-17T16:46:56.564Z,28.97
2018-10-17T16:48:40.655Z,30.40
2018-10-17T16:50:24.854Z,29.30
2018-10-17T16:52:09.155Z,29.80
2018-10-17T16:53:53.305Z,30.37
2018-10-17T16:55:37.319Z,29.90
2018-10-17T16:57:21.419Z,29.77
2018-10-17T16:59:05.609Z,28.60
2018-10-17T17:00:49.670Z,28.00
2018-10-17T17:02:33.869Z,28.33
2018-10-17T17:04:17.967Z,30.17
2018-10-17T17:06:02.244Z,28.70
2018-10-17T17:07:46.787Z,30.03
2018-10-17T17:09:31.648Z,29.00
2018-10-17T17:11:16.600Z,29.50
2018-10-17T17:13:01.293Z,29.23
2018-10-17T17:14:45.927Z,31.53
2018-10-17T17:16:30.095Z,29.93
2018-10-17T17:18:14.214Z,28.90
2018-10-17T17:19:58.436Z,29.27
2018-10-17T17:21:42.593Z,31.30
2018-10-17T17:23:26.689Z,31.63
2018-10-17T17:25:10.906Z,30.43
2018-10-17T17:26:55.082Z,32.20
2018-10-17T17:28:39.760Z,32.97
2018-10-17T17:30:24.368Z,32.47
2018-10-17T17:32:08.549Z,32.07
2018-10-17T17:33:52.676Z,33.30
2018-10-17T17:35:36.849Z,32.07
2018-10-17T17:37:21.718Z,31.40
2018-10-17T17:39:08.003Z,33.13
2018-10-17T17:40:52.988Z,31.33
2018-10-17T17:42:37.103Z,32.53
2018-10-17T17:44:21.162Z,33.17
2018-10-17T17:46:05.581Z,32.93
2018-10-17T17:47:49.755Z,34.10
2018-10-17T17:49:33.926Z,38.37
2018-10-17T17:51:19.967Z,36.67
2018-10-17T17:53:04.179Z,36.27
2018-10-17T17:54:48.363Z,37.23
2018-10-17T17:56:32.839Z,36.53
2018-10-17T17:58:17.101Z,37.37
2018-10-17T18:00:01.342Z,38.63
2018-10-17T18:01:45.505Z,40.40
2018-10-17T18:03:29.770Z,39.83
2018-10-17T18:05:14.079Z,40.40
2018-10-17T18:06:58.327Z,40.90
2018-10-17T18:08:42.691Z,43.13
2018-10-17T18:10:26.991Z,42.50
2018-10-17T18:12:11.437Z,45.17
2018-10-17T18:13:57.247Z,44.63
2018-10-17T18:15:41.390Z,44.00
2018-10-17T18:17:25.529Z,46.53
2018-10-17T18:19:09.781Z,49.20
2018-10-17T18:20:54.433Z,48.20
2018-10-17T18:22:38.752Z,48.23
2018-10-17T18:24:23.015Z,48.93
2018-10-17T18:26:07.300Z,48.40
2018-10-17T18:27:52.246Z,51.20
2018-10-17T18:29:36.478Z,51.63
2018-10-17T18:31:20.661Z,49.93
2018-10-17T18:33:05.143Z,50.10
2018-10-17T18:34:49.359Z,51.40
2018-10-17T18:36:34.080Z,53.77
2018-10-17T18:38:18.424Z,49.70
2018-10-17T18:40:04.741Z,50.53
2018-10-17T18:41:49.341Z,52.33
2018-10-17T18:43:33.973Z,51.93
2018-10-17T18:45:18.146Z,52.73
2018-10-17T18:47:02.451Z,52.17
2018-10-17T18:48:46.679Z,52.67
2018-10-17T18:50:31.210Z,53.57
2018-10-17T18:52:15.708Z,52.57
2018-10-17T18:54:00.105Z,50.23
2018-10-17T18:55:44.369Z,53.20
2018-10-17T18:57:28.357Z,53.57
2018-10-17T18:59:12.453Z,53.60
2018-10-17T19:00:56.611Z,52.80
2018-10-17T19:02:40.810Z,53.87
2018-10-17T19:04:25.060Z,53.13
2018-10-17T19:06:09.218Z,54.80
2018-10-17T19:07:53.406Z,54.47
2018-10-17T19:09:37.724Z,53.90
2018-10-17T19:11:22.064Z,55.10
2018-10-17T19:13:06.602Z,52.23
2018-10-17T19:14:50.780Z,54.13
2018-10-17T19:16:36.175Z,56.90
2018-10-17T19:18:20.673Z,53.33
2018-10-17T19:20:05.025Z,54.83
2018-10-17T19:21:49.468Z,54.40
2018-10-17T19:23:33.790Z,54.93
2018-10-17T19:25:18.048Z,53.63
2018-10-17T19:27:02.371Z,53.53
2018-10-17T19:28:46.516Z,54.23
2018-10-17T19:30:30.673Z,54.97
2018-10-17T19:32:14.876Z,54.10
2018-10-17T19:33:59.253Z,56.77
2018-10-17T19:35:43.515Z,55.53
2018-10-17T19:37:27.966Z,54.23
2018-10-17T19:39:13.503Z,55.33
2018-10-17T19:40:57.970Z,57.60
2018-10-17T19:42:42.124Z,56.57
2018-10-17T19:44:26.371Z,54.70
2018-10-17T19:46:10.449Z,56.13
2018-10-17T19:47:54.654Z,56.13
2018-10-17T19:49:39.157Z,53.73
2018-10-17T19:51:23.265Z,57.47
2018-10-17T19:53:07.492Z,56.70
2018-10-17T19:54:51.677Z,55.93
2018-10-17T19:56:35.815Z,58.83
2018-10-17T19:58:20.011Z,56.23
2018-10-17T20:00:07.214Z,55.20
2018-10-17T20:01:51.357Z,56.13
2018-10-17T20:03:36.942Z,56.67
2018-10-17T20:05:27.744Z,55.63
2018-10-17T20:07:12.242Z,56.10
2018-10-17T20:08:56.614Z,57.37
2018-10-17T20:10:40.765Z,56.43
2018-10-17T20:12:24.968Z,55.03
2018-10-17T20:14:11.484Z,53.27
2018-10-17T20:15:56.131Z,54.87
2018-10-17T20:17:40.251Z,56.20
2018-10-17T20:19:24.438Z,57.07
2018-10-17T20:21:08.711Z,54.57
2018-10-17T20:22:52.749Z,55.20
2018-10-17T20:24:36.885Z,54.17
2018-10-17T20:26:23.074Z,56.07
2018-10-17T20:28:08.020Z,53.97
2018-10-17T20:29:58.169Z,54.80
2018-10-17T20:31:42.955Z,55.83
2018-10-17T20:33:27.855Z,57.37
2018-10-17T20:35:12.393Z,55.53
2018-10-17T20:36:56.448Z,56.67
2018-10-17T20:38:40.641Z,55.30
2018-10-17T20:40:24.747Z,55.23
2018-10-17T20:42:08.856Z,56.97
2018-10-17T20:43:53.200Z,56.10
2018-10-17T20:45:37.492Z,56.07
2018-10-17T20:47:21.732Z,58.63
2018-10-17T20:49:06.200Z,56.77
2018-10-17T20:50:50.331Z,56.23
2018-10-17T20:52:34.455Z,56.37
2018-10-17T20:54:18.657Z,56.90
2018-10-17T20:56:02.809Z,54.97
2018-10-17T20:57:47.175Z,55.87
2018-10-17T20:59:31.446Z,55.20
2018-10-17T21:01:15.896Z,56.40
2018-10-17T21:03:01.277Z,58.00
2018-10-17T21:04:45.977Z,58.47
2018-10-17T21:06:30.141Z,57.23
2018-10-17T21:08:14.348Z,58.67
2018-10-17T21:09:58.414Z,57.30
2018-10-17T21:11:42.579Z,57.40
2018-10-17T21:13:26.773Z,57.17
2018-10-17T21:15:10.867Z,56.57
2018-10-17T21:16:55.030Z,56.83
2018-10-17T21:18:39.336Z,56.30
2018-10-17T21:20:23.548Z,56.60
2018-10-17T21:22:07.672Z,56.53
2018-10-17T21:23:51.900Z,60.00
2018-10-17T21:25:35.975Z,59.50
2018-10-17T21:27:20.093Z,61.23
2018-10-17T21:29:04.299Z,57.73
2018-10-17T21:30:48.452Z,59.27
2018-10-17T21:32:32.621Z,60.37
2018-10-17T21:34:16.709Z,58.70
2018-10-17T21:36:00.797Z,58.93
2018-10-17T21:37:44.940Z,60.30
2018-10-17T21:39:29.073Z,61.10
2018-10-17T21:41:13.261Z,60.47
2018-10-17T21:42:57.343Z,59.87
2018-10-17T21:44:41.454Z,61.70
2018-10-17T21:46:25.660Z,61.17
2018-10-17T21:48:09.717Z,60.93
2018-10-17T21:49:53.822Z,61.50
2018-10-17T21:51:38.415Z,62.23
2018-10-17T21:53:22.570Z,60.57
2018-10-17T21:55:06.707Z,59.27
2018-10-17T21:56:50.828Z,63.23
2018-10-17T21:58:34.969Z,62.20
2018-10-17T22:00:19.072Z,64.80
2018-10-17T22:02:03.252Z,59.20
2018-10-17T22:03:47.296Z,62.07
2018-10-17T22:05:31.373Z,63.33
2018-10-17T22:07:15.443Z,61.23
2018-10-17T22:08:59.537Z,64.47
2018-10-17T22:10:43.659Z,66.03
2018-10-17T22:12:27.707Z,62.87
2018-10-17T22:14:11.923Z,63.93
2018-10-17T22:15:55.914Z,65.47
2018-10-17T22:17:40.037Z,66.73
2018-10-17T22:19:24.312Z,66.03
2018-10-17T22:21:08.374Z,65.73
2018-10-17T22:22:52.491Z,64.50
2018-10-17T22:24:36.622Z,65.40
2018-10-17T22:26:20.658Z,62.33
2018-10-17T22:28:04.896Z,64.70
2018-10-17T22:29:54.721Z,66.13
2018-10-17T22:31:38.829Z,63.93
2018-10-17T22:33:22.933Z,62.23
2018-10-17T22:35:07.200Z,64.73
2018-10-17T22:36:51.342Z,65.97
2018-10-17T22:38:35.449Z,65.97
2018-10-17T22:40:19.521Z,65.47
2018-10-17T22:42:03.654Z,67.10
2018-10-17T22:43:48.022Z,66.87
2018-10-17T22:45:32.120Z,65.80
2018-10-17T22:47:16.217Z,69.40
2018-10-17T22:49:00.272Z,65.87
2018-10-17T22:50:44.444Z,66.80
2018-10-17T22:52:28.551Z,66.93
2018-10-17T22:54:12.663Z,64.67
2018-10-17T22:55:57.061Z,67.87
2018-10-17T22:57:41.133Z,67.03
2018-10-17T22:59:25.194Z,67.03
2018-10-17T23:01:09.549Z,69.90
2018-10-17T23:02:53.739Z,65.60
2018-10-17T23:04:37.864Z,64.57
2018-10-17T23:06:22.068Z,64.20
2018-10-17T23:08:06.343Z,65.47
2018-10-17T23:09:50.638Z,67.90
2018-10-17T23:11:34.869Z,65.30
2018-10-17T23:13:19.030Z,63.93
2018-10-17T23:15:03.955Z,64.80
2018-10-17T23:16:48.334Z,64.53
2018-10-17T23:18:32.477Z,64.60
2018-10-17T23:20:16.723Z,65.77
2018-10-17T23:22:00.851Z,65.27
2018-10-17T23:23:44.993Z,64.63
2018-10-17T23:25:29.379Z,65.83
2018-10-17T23:27:13.557Z,62.87
2018-10-17T23:28:57.740Z,64.10
2018-10-17T23:30:41.910Z,65.53
2018-10-17T23:32:26.017Z,68.00
2018-10-17T23:34:10.221Z,64.73
2018-10-17T23:35:54.395Z,66.30
2018-10-17T23:37:38.550Z,62.90
2018-10-17T23:39:22.732Z,63.57
2018-10-17T23:41:06.957Z,65.07
2018-10-17T23:42:51.095Z,65.00
2018-10-17T23:44:35.297Z,65.77
2018-10-17T23:46:19.447Z,62.37
2018-10-17T23:48:03.685Z,63.83
2018-10-17T23:49:48.157Z,62.43
2018-10-17T23:51:32.285Z,64.00
2018-10-17T23:53:16.346Z,61.57
2018-10-17T23:55:00.419Z,63.07
2018-10-17T23:56:44.566Z,62.37
2018-10-17T23:58:28.794Z,62.73
